Página principal
METAR-TAF:

METAR-TAF

Aeroportos :

Aeroporto Internacional de Sunan

Pyongyang, Coreia do Norte

latitude: 39-02N, longitude: 125-47E, altura: 36 m

METAR: em falta

Hora: 08:41 (00:11 UTC)

Previsão

O boletim foi feito há 3 horas e 11 minutos, às 21:00 UTC
Previsão válida de 20 às 00 UTC a 20 às 24 UTC
Vento 6 kt de sudeste
Visibilidade: 4000 m
Encobertoa uma altura de 2000 ft
chuva fraca, neblina

TAF: ZKPY 192100Z 2000/2024 14003MPS 4000 -RA BR OVC020 TX24/2007Z TN17/2022Z

Observações e previsões do tempo de mais de 4000 aeroportos (mensagens METAR e TAF).

As estações disponíveis são os pontos amarelos e vermelhos sobre o mapa.

Mova o rato sobre o mapa para ver o nome da estação.

Depois clique no ponto para visualizar as observações e previsões meteorológicas.

Para alterar o mapa : clique nos botões verdes com uma cruz preta para aumentar o zoom; no botão verde com uma pitada de zoom; ou nas setas verdes para mapas adjacentes.


METAR-TAF: